sensor_id;sensor_type;location;lat;lon;timestamp;pressure;altitude;pressure_sealevel;temperature;humidity
14594;BME280;7383;52.354;9.756;2023-05-29T00:00:37;-12801.69;;;20.03;100.00
14594;BME280;7383;52.354;9.756;2023-05-29T00:03:04;-12801.25;;;20.00;100.00
14594;BME280;7383;52.354;9.756;2023-05-29T00:05:32;-12800.81;;;19.98;100.00
14594;BME280;7383;52.354;9.756;2023-05-29T00:07:58;-12800.22;;;19.94;100.00
14594;BME280;7383;52.354;9.756;2023-05-29T00:10:25;-12799.09;;;19.88;100.00
14594;BME280;7383;52.354;9.756;2023-05-29T00:12:51;-12798.41;;;19.84;100.00
14594;BME280;7383;52.354;9.756;2023-05-29T00:15:18;-12797.97;;;19.81;100.00
14594;BME280;7383;52.354;9.756;2023-05-29T00:17:44;-12797.63;;;19.79;100.00
14594;BME280;7383;52.354;9.756;2023-05-29T00:20:12;-12796.94;;;19.75;100.00
14594;BME280;7383;52.354;9.756;2023-05-29T00:22:40;-12795.75;;;19.68;100.00
14594;BME280;7383;52.354;9.756;2023-05-29T00:25:07;-12794.63;;;19.61;100.00
14594;BME280;7383;52.354;9.756;2023-05-29T00:27:35;-12794.63;;;19.61;100.00
14594;BME280;7383;52.354;9.756;2023-05-29T00:30:02;-12792.91;;;19.51;100.00
14594;BME280;7383;52.354;9.756;2023-05-29T00:32:29;-12793.16;;;19.53;100.00
14594;BME280;7383;52.354;9.756;2023-05-29T00:34:56;-12793.50;;;19.55;100.00
14594;BME280;7383;52.354;9.756;2023-05-29T00:37:22;-12792.91;;;19.51;100.00
14594;BME280;7383;52.354;9.756;2023-05-29T00:39:50;-12791.09;;;19.41;100.00
14594;BME280;7383;52.354;9.756;2023-05-29T00:42:17;-12791.44;;;19.43;100.00
14594;BME280;7383;52.354;9.756;2023-05-29T00:44:43;-12790.66;;;19.38;100.00
14594;BME280;7383;52.354;9.756;2023-05-29T00:47:11;-12789.47;;;19.31;100.00
14594;BME280;7383;52.354;9.756;2023-05-29T00:49:38;-12789.13;;;19.29;100.00
14594;BME280;7383;52.354;9.756;2023-05-29T00:52:06;-12788.59;;;19.26;100.00
14594;BME280;7383;52.354;9.756;2023-05-29T00:54:34;-12787.56;;;19.20;100.00
14594;BME280;7383;52.354;9.756;2023-05-29T00:57:04;-12787.56;;;19.20;100.00
14594;BME280;7383;52.354;9.756;2023-05-29T00:59:33;-12786.88;;;19.16;100.00
14594;BME280;7383;52.354;9.756;2023-05-29T01:02:01;-12785.16;;;19.06;100.00
14594;BME280;7383;52.354;9.756;2023-05-29T01:04:28;-12785.25;;;19.06;100.00
14594;BME280;7383;52.354;9.756;2023-05-29T01:06:54;-12784.03;;;18.99;100.00
14594;BME280;7383;52.354;9.756;2023-05-29T01:09:22;-12783.69;;;18.97;100.00
14594;BME280;7383;52.354;9.756;2023-05-29T01:11:55;-12782.41;;;18.90;100.00
14594;BME280;7383;52.354;9.756;2023-05-29T01:14:29;-12781.19;;;18.83;100.00
14594;BME280;7383;52.354;9.756;2023-05-29T01:17:04;-12781.72;;;18.86;100.00
14594;BME280;7383;52.354;9.756;2023-05-29T01:19:49;-12781.81;;;18.86;100.00
14594;BME280;7383;52.354;9.756;2023-05-29T01:22:29;-12780.50;;;18.79;100.00
14594;BME280;7383;52.354;9.756;2023-05-29T01:25:05;-12780.94;;;18.81;100.00
14594;BME280;7383;52.354;9.756;2023-05-29T01:27:39;-12780.94;;;18.81;100.00
14594;BME280;7383;52.354;9.756;2023-05-29T01:30:07;-12779.72;;;18.74;100.00
14594;BME280;7383;52.354;9.756;2023-05-29T01:32:36;-12779.13;;;18.71;100.00
14594;BME280;7383;52.354;9.756;2023-05-29T01:35:04;-12778.00;;;18.64;100.00
14594;BME280;7383;52.354;9.756;2023-05-29T01:37:30;-12777.66;;;18.62;100.00
14594;BME280;7383;52.354;9.756;2023-05-29T01:39:57;-12778.00;;;18.64;100.00
14594;BME280;7383;52.354;9.756;2023-05-29T01:42:23;-12777.31;;;18.60;100.00
14594;BME280;7383;52.354;9.756;2023-05-29T01:44:52;-12776.47;;;18.55;100.00
14594;BME280;7383;52.354;9.756;2023-05-29T01:47:18;-12776.53;;;18.55;100.00
14594;BME280;7383;52.354;9.756;2023-05-29T01:49:47;-12775.16;;;18.47;100.00
14594;BME280;7383;52.354;9.756;2023-05-29T01:52:15;-12775.41;;;18.49;100.00
14594;BME280;7383;52.354;9.756;2023-05-29T01:54:41;-12774.56;;;18.44;100.00
14594;BME280;7383;52.354;9.756;2023-05-29T01:57:08;-12772.50;;;18.32;100.00
14594;BME280;7383;52.354;9.756;2023-05-29T01:59:34;-12773.59;;;18.38;100.00
14594;BME280;7383;52.354;9.756;2023-05-29T02:02:08;-12774.38;;;18.43;100.00
14594;BME280;7383;52.354;9.756;2023-05-29T02:04:34;-12773.69;;;18.39;100.00
14594;BME280;7383;52.354;9.756;2023-05-29T02:07:01;-12772.22;;;18.30;100.00
14594;BME280;7383;52.354;9.756;2023-05-29T02:09:27;-12772.41;;;18.31;100.00
14594;BME280;7383;52.354;9.756;2023-05-29T02:11:54;-12772.16;;;18.30;100.00
14594;BME280;7383;52.354;9.756;2023-05-29T02:14:20;-12771.47;;;18.26;100.00
14594;BME280;7383;52.354;9.756;2023-05-29T02:16:49;-12771.53;;;18.26;100.00
14594;BME280;7383;52.354;9.756;2023-05-29T02:19:18;-12770.75;;;18.22;100.00
14594;BME280;7383;52.354;9.756;2023-05-29T02:21:46;-12770.75;;;18.22;100.00
14594;BME280;7383;52.354;9.756;2023-05-29T02:24:13;-12770.25;;;18.18;100.00
14594;BME280;7383;52.354;9.756;2023-05-29T02:26:40;-12769.56;;;18.14;100.00
14594;BME280;7383;52.354;9.756;2023-05-29T02:29:07;-12768.34;;;18.07;100.00
14594;BME280;7383;52.354;9.756;2023-05-29T02:31:35;-12767.66;;;18.03;100.00
14594;BME280;7383;52.354;9.756;2023-05-29T02:34:01;-12767.06;;;18.00;100.00
14594;BME280;7383;52.354;9.756;2023-05-29T02:36:29;-12767.16;;;18.00;100.00
14594;BME280;7383;52.354;9.756;2023-05-29T02:38:55;-12766.19;;;17.95;100.00
14594;BME280;7383;52.354;9.756;2023-05-29T02:41:22;-12765.34;;;17.90;100.00
14594;BME280;7383;52.354;9.756;2023-05-29T02:43:48;-12765.16;;;17.89;100.00
14594;BME280;7383;52.354;9.756;2023-05-29T02:46:14;-12765.25;;;17.89;100.00
14594;BME280;7383;52.354;9.756;2023-05-29T02:48:41;-12765.16;;;17.89;100.00
14594;BME280;7383;52.354;9.756;2023-05-29T02:51:07;-12763.94;;;17.82;100.00
14594;BME280;7383;52.354;9.756;2023-05-29T02:53:35;-12763.69;;;17.80;100.00
14594;BME280;7383;52.354;9.756;2023-05-29T02:56:02;-12763.34;;;17.78;100.00
14594;BME280;7383;52.354;9.756;2023-05-29T02:58:28;-12763.44;;;17.79;100.00
14594;BME280;7383;52.354;9.756;2023-05-29T03:00:55;-12761.44;;;17.67;100.00
14594;BME280;7383;52.354;9.756;2023-05-29T03:03:21;-12761.78;;;17.69;100.00
14594;BME280;7383;52.354;9.756;2023-05-29T03:05:47;-12760.50;;;17.61;100.00
14594;BME280;7383;52.354;9.756;2023-05-29T03:08:14;-12760.16;;;17.59;100.00
14594;BME280;7383;52.354;9.756;2023-05-29T03:10:42;-12758.34;;;17.49;100.00
14594;BME280;7383;52.354;9.756;2023-05-29T03:13:09;-12758.50;;;17.50;100.00
14594;BME280;7383;52.354;9.756;2023-05-29T03:15:36;-12758.16;;;17.48;100.00
14594;BME280;7383;52.354;9.756;2023-05-29T03:18:02;-12758.34;;;17.49;100.00
14594;BME280;7383;52.354;9.756;2023-05-29T03:20:29;-12757.81;;;17.46;100.00
14594;BME280;7383;52.354;9.756;2023-05-29T03:22:55;-12758.06;;;17.47;100.00
14594;BME280;7383;52.354;9.756;2023-05-29T03:25:22;-12756.09;;;17.36;100.00
14594;BME280;7383;52.354;9.756;2023-05-29T03:27:50;-12756.88;;;17.40;100.00
14594;BME280;7383;52.354;9.756;2023-05-29T03:30:16;-12756.59;;;17.39;100.00
14594;BME280;7383;52.354;9.756;2023-05-29T03:32:44;-12755.75;;;17.34;100.00
14594;BME280;7383;52.354;9.756;2023-05-29T03:35:10;-12754.34;;;17.26;100.00
14594;BME280;7383;52.354;9.756;2023-05-29T03:37:36;-12754.28;;;17.25;100.00
14594;BME280;7383;52.354;9.756;2023-05-29T03:40:03;-12753.41;;;17.20;100.00
14594;BME280;7383;52.354;9.756;2023-05-29T03:42:30;-12755.06;;;17.30;100.00
14594;BME280;7383;52.354;9.756;2023-05-29T03:44:58;-12756.44;;;17.38;100.00
14594;BME280;7383;52.354;9.756;2023-05-29T03:47:25;-12756.44;;;17.38;100.00
14594;BME280;7383;52.354;9.756;2023-05-29T03:49:51;-12757.03;;;17.41;100.00
14594;BME280;7383;52.354;9.756;2023-05-29T03:52:18;-12756.94;;;17.41;100.00
14594;BME280;7383;52.354;9.756;2023-05-29T03:54:44;-12757.72;;;17.45;100.00
14594;BME280;7383;52.354;9.756;2023-05-29T03:57:11;-12758.25;;;17.48;100.00
14594;BME280;7383;52.354;9.756;2023-05-29T03:59:37;-12757.91;;;17.46;100.00
14594;BME280;7383;52.354;9.756;2023-05-29T04:02:05;-12758.06;;;17.47;100.00
14594;BME280;7383;52.354;9.756;2023-05-29T04:04:31;-12758.50;;;17.50;100.00
14594;BME280;7383;52.354;9.756;2023-05-29T04:06:58;-12758.69;;;17.51;100.00
14594;BME280;7383;52.354;9.756;2023-05-29T04:19:36;-12759.91;;;17.58;100.00
14594;BME280;7383;52.354;9.756;2023-05-29T04:22:03;-12760.25;;;17.60;100.00
14594;BME280;7383;52.354;9.756;2023-05-29T04:24:33;-12760.16;;;17.59;100.00
14594;BME280;7383;52.354;9.756;2023-05-29T04:27:00;-12760.50;;;17.61;100.00
14594;BME280;7383;52.354;9.756;2023-05-29T04:29:28;-12761.00;;;17.64;100.00
14594;BME280;7383;52.354;9.756;2023-05-29T04:31:55;-12761.00;;;17.64;100.00
14594;BME280;7383;52.354;9.756;2023-05-29T04:34:23;-12761.19;;;17.65;100.00
14594;BME280;7383;52.354;9.756;2023-05-29T04:36:51;-12761.88;;;17.69;100.00
14594;BME280;7383;52.354;9.756;2023-05-29T04:39:17;-12761.97;;;17.70;100.00
14594;BME280;7383;52.354;9.756;2023-05-29T04:41:43;-12762.22;;;17.72;100.00
14594;BME280;7383;52.354;9.756;2023-05-29T04:44:10;-12761.63;;;17.68;100.00
14594;BME280;7383;52.354;9.756;2023-05-29T04:46:37;-12761.88;;;17.69;100.00
14594;BME280;7383;52.354;9.756;2023-05-29T04:49:03;-12761.72;;;17.68;100.00
14594;BME280;7383;52.354;9.756;2023-05-29T04:51:30;-12762.41;;;17.73;100.00
14594;BME280;7383;52.354;9.756;2023-05-29T04:53:57;-12762.91;;;17.76;100.00
14594;BME280;7383;52.354;9.756;2023-05-29T04:56:24;-12762.56;;;17.74;100.00
14594;BME280;7383;52.354;9.756;2023-05-29T04:58:51;-12762.06;;;17.70;100.00
14594;BME280;7383;52.354;9.756;2023-05-29T05:01:18;-12761.97;;;17.70;100.00
14594;BME280;7383;52.354;9.756;2023-05-29T05:03:45;-12760.41;;;17.61;100.00
14594;BME280;7383;52.354;9.756;2023-05-29T05:06:12;-12758.59;;;17.50;100.00
14594;BME280;7383;52.354;9.756;2023-05-29T05:08:38;-12759.28;;;17.54;100.00
14594;BME280;7383;52.354;9.756;2023-05-29T05:11:06;-12759.53;;;17.56;100.00
14594;BME280;7383;52.354;9.756;2023-05-29T05:13:32;-12758.50;;;17.50;100.00
14594;BME280;7383;52.354;9.756;2023-05-29T05:15:59;-12758.41;;;17.49;100.00
14594;BME280;7383;52.354;9.756;2023-05-29T05:18:25;-12758.75;;;17.51;100.00
14594;BME280;7383;52.354;9.756;2023-05-29T05:20:52;-12758.84;;;17.52;100.00
14594;BME280;7383;52.354;9.756;2023-05-29T05:23:24;-12758.69;;;17.51;100.00
14594;BME280;7383;52.354;9.756;2023-05-29T05:34:38;-12760.16;;;17.59;100.00
14594;BME280;7383;52.354;9.756;2023-05-29T05:37:04;-12760.75;;;17.63;100.00
14594;BME280;7383;52.354;9.756;2023-05-29T05:39:31;-12760.50;;;17.61;100.00
14594;BME280;7383;52.354;9.756;2023-05-29T05:41:57;-12760.41;;;17.61;100.00
14594;BME280;7383;52.354;9.756;2023-05-29T05:44:24;-12761.28;;;17.66;100.00
14594;BME280;7383;52.354;9.756;2023-05-29T05:46:50;-12761.34;;;17.66;100.00
14594;BME280;7383;52.354;9.756;2023-05-29T05:49:18;-12762.06;;;17.70;100.00
14594;BME280;7383;52.354;9.756;2023-05-29T05:51:46;-12762.13;;;17.71;100.00
14594;BME280;7383;52.354;9.756;2023-05-29T05:54:12;-12762.31;;;17.72;100.00
14594;BME280;7383;52.354;9.756;2023-05-29T05:56:39;-12762.06;;;17.70;100.00
14594;BME280;7383;52.354;9.756;2023-05-29T05:59:05;-12763.00;;;17.76;100.00
14594;BME280;7383;52.354;9.756;2023-05-29T06:01:32;-12763.53;;;17.79;100.00
14594;BME280;7383;52.354;9.756;2023-05-29T06:03:58;-12762.81;;;17.75;100.00
14594;BME280;7383;52.354;9.756;2023-05-29T06:06:25;-12763.88;;;17.81;100.00
14594;BME280;7383;52.354;9.756;2023-05-29T06:08:53;-12763.88;;;17.81;100.00
14594;BME280;7383;52.354;9.756;2023-05-29T06:11:19;-12763.34;;;17.78;100.00
14594;BME280;7383;52.354;9.756;2023-05-29T06:13:45;-12764.47;;;17.85;100.00
14594;BME280;7383;52.354;9.756;2023-05-29T06:16:15;-12764.28;;;17.84;100.00
14594;BME280;7383;52.354;9.756;2023-05-29T06:18:44;-12763.88;;;17.81;100.00
14594;BME280;7383;52.354;9.756;2023-05-29T06:21:11;-12764.47;;;17.85;100.00
14594;BME280;7383;52.354;9.756;2023-05-29T06:23:38;-12765.16;;;17.89;100.00
14594;BME280;7383;52.354;9.756;2023-05-29T06:26:07;-12765.59;;;17.91;100.00
14594;BME280;7383;52.354;9.756;2023-05-29T06:28:37;-12764.81;;;17.87;100.00
14594;BME280;7383;52.354;9.756;2023-05-29T06:31:04;-12765.59;;;17.91;100.00
14594;BME280;7383;52.354;9.756;2023-05-29T06:33:30;-12766.09;;;17.94;100.00
14594;BME280;7383;52.354;9.756;2023-05-29T06:35:57;-12766.44;;;17.96;100.00
14594;BME280;7383;52.354;9.756;2023-05-29T06:38:23;-12766.78;;;17.98;100.00
14594;BME280;7383;52.354;9.756;2023-05-29T06:40:50;-12765.94;;;17.93;100.00
14594;BME280;7383;52.354;9.756;2023-05-29T06:43:18;-12766.72;;;17.98;100.00
14594;BME280;7383;52.354;9.756;2023-05-29T06:45:44;-12766.97;;;17.99;100.00
14594;BME280;7383;52.354;9.756;2023-05-29T06:48:11;-12767.16;;;18.00;100.00
14594;BME280;7383;52.354;9.756;2023-05-29T06:50:37;-12766.63;;;17.97;100.00
14594;BME280;7383;52.354;9.756;2023-05-29T06:53:04;-12767.41;;;18.02;100.00
14594;BME280;7383;52.354;9.756;2023-05-29T06:55:30;-12768.34;;;18.07;100.00
14594;BME280;7383;52.354;9.756;2023-05-29T06:57:56;-12768.88;;;18.10;100.00
14594;BME280;7383;52.354;9.756;2023-05-29T07:00:24;-12769.22;;;18.12;100.00
14594;BME280;7383;52.354;9.756;2023-05-29T07:02:51;-12769.91;;;18.16;100.00
14594;BME280;7383;52.354;9.756;2023-05-29T07:05:17;-12769.66;;;18.15;100.00
14594;BME280;7383;52.354;9.756;2023-05-29T07:07:43;-12768.94;;;18.11;100.00
14594;BME280;7383;52.354;9.756;2023-05-29T07:10:10;-12769.72;;;18.15;100.00
14594;BME280;7383;52.354;9.756;2023-05-29T07:12:36;-12770.59;;;18.20;100.00
14594;BME280;7383;52.354;9.756;2023-05-29T07:15:04;-12771.09;;;18.24;100.00
14594;BME280;7383;52.354;9.756;2023-05-29T07:17:32;-12771.97;;;18.29;100.00
14594;BME280;7383;52.354;9.756;2023-05-29T07:19:58;-12771.88;;;18.28;100.00
14594;BME280;7383;52.354;9.756;2023-05-29T07:22:25;-12771.97;;;18.29;100.00
14594;BME280;7383;52.354;9.756;2023-05-29T07:24:51;-12771.88;;;18.28;100.00
14594;BME280;7383;52.354;9.756;2023-05-29T07:27:17;-12771.78;;;18.28;100.00
14594;BME280;7383;52.354;9.756;2023-05-29T07:29:44;-12771.47;;;18.26;100.00
14594;BME280;7383;52.354;9.756;2023-05-29T07:32:10;-12771.88;;;18.28;100.00
14594;BME280;7383;52.354;9.756;2023-05-29T07:34:38;-12772.66;;;18.33;100.00
14594;BME280;7383;52.354;9.756;2023-05-29T07:37:05;-12773.97;;;18.40;100.00
14594;BME280;7383;52.354;9.756;2023-05-29T07:39:34;-12773.44;;;18.37;100.00
14594;BME280;7383;52.354;9.756;2023-05-29T07:42:02;-12775.25;;;18.48;100.00
14594;BME280;7383;52.354;9.756;2023-05-29T07:44:28;-12775.94;;;18.52;100.00
14594;BME280;7383;52.354;9.756;2023-05-29T07:46:55;-12776.81;;;18.57;100.00
14594;BME280;7383;52.354;9.756;2023-05-29T07:49:21;-12778.28;;;18.65;100.00
14594;BME280;7383;52.354;9.756;2023-05-29T07:51:49;-12779.03;;;18.70;100.00
14594;BME280;7383;52.354;9.756;2023-05-29T07:54:16;-12779.72;;;18.74;100.00
14594;BME280;7383;52.354;9.756;2023-05-29T07:56:45;-12780.69;;;18.80;100.00
14594;BME280;7383;52.354;9.756;2023-05-29T07:59:12;-12781.88;;;18.87;100.00
14594;BME280;7383;52.354;9.756;2023-05-29T08:01:39;-12782.50;;;18.90;100.00
14594;BME280;7383;52.354;9.756;2023-05-29T08:04:05;-12783.09;;;18.94;100.00
14594;BME280;7383;52.354;9.756;2023-05-29T08:06:32;-12783.88;;;18.98;100.00
14594;BME280;7383;52.354;9.756;2023-05-29T08:09:00;-12785.31;;;19.07;100.00
14594;BME280;7383;52.354;9.756;2023-05-29T08:11:26;-12786.03;;;19.11;100.00
14594;BME280;7383;52.354;9.756;2023-05-29T08:13:53;-12785.75;;;19.09;100.00
14594;BME280;7383;52.354;9.756;2023-05-29T08:16:19;-12785.75;;;19.09;100.00
14594;BME280;7383;52.354;9.756;2023-05-29T08:18:47;-12785.59;;;19.08;100.00
14594;BME280;7383;52.354;9.756;2023-05-29T08:21:13;-12785.94;;;19.10;100.00
14594;BME280;7383;52.354;9.756;2023-05-29T08:23:40;-12786.09;;;19.11;100.00
14594;BME280;7383;52.354;9.756;2023-05-29T08:26:08;-12786.72;;;19.15;100.00
14594;BME280;7383;52.354;9.756;2023-05-29T08:28:34;-12786.78;;;19.15;100.00
14594;BME280;7383;52.354;9.756;2023-05-29T08:31:01;-12787.31;;;19.18;100.00
14594;BME280;7383;52.354;9.756;2023-05-29T08:33:27;-12787.47;;;19.20;100.00
14594;BME280;7383;52.354;9.756;2023-05-29T08:35:54;-12787.41;;;19.19;100.00
14594;BME280;7383;52.354;9.756;2023-05-29T08:38:21;-12788.16;;;19.24;100.00
14594;BME280;7383;52.354;9.756;2023-05-29T08:40:50;-12788.09;;;19.23;100.00
14594;BME280;7383;52.354;9.756;2023-05-29T08:43:21;-12788.44;;;19.25;100.00
14594;BME280;7383;52.354;9.756;2023-05-29T08:45:53;-12789.13;;;19.29;100.00
14594;BME280;7383;52.354;9.756;2023-05-29T08:48:22;-12789.47;;;19.31;100.00
14594;BME280;7383;52.354;9.756;2023-05-29T08:50:50;-12790.84;;;19.39;100.00
14594;BME280;7383;52.354;9.756;2023-05-29T08:53:18;-12791.19;;;19.41;100.00
14594;BME280;7383;52.354;9.756;2023-05-29T08:55:46;-12791.63;;;19.44;100.00
14594;BME280;7383;52.354;9.756;2023-05-29T08:58:14;-12792.56;;;19.49;100.00
14594;BME280;7383;52.354;9.756;2023-05-29T09:00:43;-12793.41;;;19.54;100.00
14594;BME280;7383;52.354;9.756;2023-05-29T09:03:09;-12793.50;;;19.55;100.00
14594;BME280;7383;52.354;9.756;2023-05-29T09:05:38;-12793.69;;;19.56;100.00
14594;BME280;7383;52.354;9.756;2023-05-29T09:08:05;-12794.03;;;19.58;100.00
14594;BME280;7383;52.354;9.756;2023-05-29T09:10:32;-12794.03;;;19.58;100.00
14594;BME280;7383;52.354;9.756;2023-05-29T09:12:59;-12795.06;;;19.64;100.00
14594;BME280;7383;52.354;9.756;2023-05-29T09:15:25;-12795.22;;;19.65;100.00
14594;BME280;7383;52.354;9.756;2023-05-29T09:17:55;-12795.41;;;19.66;100.00
14594;BME280;7383;52.354;9.756;2023-05-29T09:20:23;-12795.91;;;19.69;100.00
14594;BME280;7383;52.354;9.756;2023-05-29T09:22:54;-12796.59;;;19.73;100.00
14594;BME280;7383;52.354;9.756;2023-05-29T09:25:22;-12796.94;;;19.75;100.00
14594;BME280;7383;52.354;9.756;2023-05-29T09:27:51;-12796.09;;;19.70;100.00
14594;BME280;7383;52.354;9.756;2023-05-29T09:30:31;-12796.88;;;19.75;100.00
14594;BME280;7383;52.354;9.756;2023-05-29T09:33:00;-12797.63;;;19.79;100.00
14594;BME280;7383;52.354;9.756;2023-05-29T09:35:32;-12798.41;;;19.84;100.00
14594;BME280;7383;52.354;9.756;2023-05-29T09:37:58;-12798.66;;;19.85;100.00
14594;BME280;7383;52.354;9.756;2023-05-29T09:40:25;-12799.53;;;19.90;100.00
14594;BME280;7383;52.354;9.756;2023-05-29T09:42:52;-12799.44;;;19.90;100.00
14594;BME280;7383;52.354;9.756;2023-05-29T09:45:20;-12798.84;;;19.86;100.00
14594;BME280;7383;52.354;9.756;2023-05-29T09:47:46;-12799.53;;;19.90;100.00
14594;BME280;7383;52.354;9.756;2023-05-29T09:50:19;-12799.78;;;19.92;100.00
14594;BME280;7383;52.354;9.756;2023-05-29T09:52:46;-12800.22;;;19.94;100.00
14594;BME280;7383;52.354;9.756;2023-05-29T09:55:17;-12800.81;;;19.98;100.00
14594;BME280;7383;52.354;9.756;2023-05-29T09:57:46;-12801.94;;;20.04;100.00
14594;BME280;7383;52.354;9.756;2023-05-29T10:00:14;-12801.75;;;20.03;100.00
14594;BME280;7383;52.354;9.756;2023-05-29T10:02:43;-12801.94;;;20.04;100.00
14594;BME280;7383;52.354;9.756;2023-05-29T10:05:10;-12803.22;;;20.12;100.00
14594;BME280;7383;52.354;9.756;2023-05-29T10:07:44;-12803.66;;;20.14;100.00
14594;BME280;7383;52.354;9.756;2023-05-29T10:10:13;-12804.50;;;20.20;100.00
14594;BME280;7383;52.354;9.756;2023-05-29T10:12:44;-12804.84;;;20.22;100.00
14594;BME280;7383;52.354;9.756;2023-05-29T10:15:12;-12805.72;;;20.27;100.00
14594;BME280;7383;52.354;9.756;2023-05-29T10:17:44;-12806.75;;;20.33;100.00
14594;BME280;7383;52.354;9.756;2023-05-29T10:20:14;-12807.00;;;20.34;100.00
14594;BME280;7383;52.354;9.756;2023-05-29T10:22:46;-12808.03;;;20.40;100.00
14594;BME280;7383;52.354;9.756;2023-05-29T10:25:14;-12807.88;;;20.39;100.00
14594;BME280;7383;52.354;9.756;2023-05-29T10:27:41;-12808.22;;;20.41;100.00
14594;BME280;7383;52.354;9.756;2023-05-29T10:30:14;-12808.91;;;20.45;100.00
14594;BME280;7383;52.354;9.756;2023-05-29T10:32:56;-12807.69;;;20.38;100.00
14594;BME280;7383;52.354;9.756;2023-05-29T10:35:31;-12807.53;;;20.37;100.00
14594;BME280;7383;52.354;9.756;2023-05-29T10:38:11;-12807.78;;;20.39;100.00
14594;BME280;7383;52.354;9.756;2023-05-29T10:40:38;-12807.53;;;20.37;100.00
14594;BME280;7383;52.354;9.756;2023-05-29T10:43:04;-12807.34;;;20.36;100.00
14594;BME280;7383;52.354;9.756;2023-05-29T10:45:51;-12807.88;;;20.39;100.00
14594;BME280;7383;52.354;9.756;2023-05-29T10:48:37;-12808.38;;;20.42;100.00
14594;BME280;7383;52.354;9.756;2023-05-29T10:51:06;-12807.28;;;20.36;100.00
14594;BME280;7383;52.354;9.756;2023-05-29T10:53:35;-12806.91;;;20.34;100.00
14594;BME280;7383;52.354;9.756;2023-05-29T10:56:08;-12808.03;;;20.40;100.00
14594;BME280;7383;52.354;9.756;2023-05-29T10:58:37;-12808.63;;;20.44;100.00
14594;BME280;7383;52.354;9.756;2023-05-29T11:01:08;-12809.69;;;20.50;100.00
14594;BME280;7383;52.354;9.756;2023-05-29T11:03:34;-12811.06;;;20.58;100.00
14594;BME280;7383;52.354;9.756;2023-05-29T11:06:02;-12812.34;;;20.66;100.00
14594;BME280;7383;52.354;9.756;2023-05-29T11:08:32;-12812.16;;;20.65;100.00
14594;BME280;7383;52.354;9.756;2023-05-29T11:11:02;-12812.75;;;20.68;100.00
14594;BME280;7383;52.354;9.756;2023-05-29T11:13:33;-12813.09;;;20.70;100.00
14594;BME280;7383;52.354;9.756;2023-05-29T11:16:10;-12812.94;;;20.69;100.00
14594;BME280;7383;52.354;9.756;2023-05-29T11:18:42;-12813.28;;;20.71;100.00
14594;BME280;7383;52.354;9.756;2023-05-29T11:21:22;-12814.06;;;20.76;100.00
14594;BME280;7383;52.354;9.756;2023-05-29T11:23:50;-12814.75;;;20.80;100.00
14594;BME280;7383;52.354;9.756;2023-05-29T11:26:19;-12815.94;;;20.87;100.00
14594;BME280;7383;52.354;9.756;2023-05-29T11:28:46;-12816.28;;;20.89;100.00
14594;BME280;7383;52.354;9.756;2023-05-29T11:31:13;-12818.09;;;20.99;100.00
14594;BME280;7383;52.354;9.756;2023-05-29T11:33:40;-12819.47;;;21.07;100.00
14594;BME280;7383;52.354;9.756;2023-05-29T11:36:08;-12819.88;;;21.10;100.00
14594;BME280;7383;52.354;9.756;2023-05-29T11:38:36;-12820.22;;;21.12;100.00
14594;BME280;7383;52.354;9.756;2023-05-29T11:41:02;-12821.19;;;21.18;100.00
14594;BME280;7383;52.354;9.756;2023-05-29T11:43:31;-12822.47;;;21.25;100.00
14594;BME280;7383;52.354;9.756;2023-05-29T11:45:57;-12823.66;;;21.32;100.00
14594;BME280;7383;52.354;9.756;2023-05-29T11:48:24;-12824.34;;;21.36;100.00
14594;BME280;7383;52.354;9.756;2023-05-29T13:57:48;-13108.31;;;38.37;100.00
14594;BME280;7383;52.354;9.756;2023-05-29T14:00:18;-13118.16;;;38.98;100.00
14594;BME280;7383;52.354;9.756;2023-05-29T14:02:47;-13116.94;;;38.90;98.44
14594;BME280;7383;52.354;9.756;2023-05-29T14:05:13;-13124.78;;;39.38;95.26
14594;BME280;7383;52.354;9.756;2023-05-29T14:07:40;-13131.97;;;39.82;91.66
14594;BME280;7383;52.354;9.756;2023-05-29T14:10:06;-13142.94;;;40.49;88.90
14594;BME280;7383;52.354;9.756;2023-05-29T14:12:33;-13148.69;;;40.85;83.74
14594;BME280;7383;52.354;9.756;2023-05-29T14:15:01;-13152.56;;;41.08;84.65
14594;BME280;7383;52.354;9.756;2023-05-29T14:17:27;-13166.94;;;41.97;80.05
14594;BME280;7383;52.354;9.756;2023-05-29T14:19:54;-13172.78;;;42.33;77.33
14594;BME280;7383;52.354;9.756;2023-05-29T14:22:21;-13186.72;;;43.19;77.67
14594;BME280;7383;52.354;9.756;2023-05-29T14:24:47;-13190.66;;;43.43;74.31
14594;BME280;7383;52.354;9.756;2023-05-29T14:27:14;-13196.38;;;43.78;73.01
14594;BME280;7383;52.354;9.756;2023-05-29T14:29:41;-13201.94;;;44.13;74.65
14594;BME280;7383;52.354;9.756;2023-05-29T14:32:08;-13205.75;;;44.36;71.71
14594;BME280;7383;52.354;9.756;2023-05-29T14:34:35;-13208.53;;;44.53;73.86
14594;BME280;7383;52.354;9.756;2023-05-29T14:37:01;-13213.28;;;44.83;74.99
14594;BME280;7383;52.354;9.756;2023-05-29T14:39:28;-13210.34;;;44.65;72.14
14594;BME280;7383;52.354;9.756;2023-05-29T14:41:55;-13213.34;;;44.83;68.00
14594;BME280;7383;52.354;9.756;2023-05-29T14:44:22;-13211.81;;;44.74;67.30
14594;BME280;7383;52.354;9.756;2023-05-29T14:46:48;-13212.28;;;44.77;64.96
14594;BME280;7383;52.354;9.756;2023-05-29T14:49:16;-13213.75;;;44.86;65.99
14594;BME280;7383;52.354;9.756;2023-05-29T14:51:44;-13212.78;;;44.80;64.18
14594;BME280;7383;52.354;9.756;2023-05-29T14:54:10;-13219.13;;;45.19;63.15
14594;BME280;7383;52.354;9.756;2023-05-29T14:56:37;-13216.28;;;45.01;61.35
14594;BME280;7383;52.354;9.756;2023-05-29T14:59:04;-13213.28;;;44.83;60.10
14594;BME280;7383;52.354;9.756;2023-05-29T15:01:30;-13215.41;;;44.96;61.57
14594;BME280;7383;52.354;9.756;2023-05-29T15:03:57;-13212.63;;;44.79;61.18
14594;BME280;7383;52.354;9.756;2023-05-29T15:06:29;-13219.72;;;45.23;62.99
14594;BME280;7383;52.354;9.756;2023-05-29T15:09:12;-13219.78;;;45.23;61.07
14594;BME280;7383;52.354;9.756;2023-05-29T15:11:39;-13209.84;;;44.62;60.28
14594;BME280;7383;52.354;9.756;2023-05-29T15:14:05;-13215.22;;;44.95;60.62
14594;BME280;7383;52.354;9.756;2023-05-29T15:16:32;-13213.91;;;44.87;62.74
14594;BME280;7383;52.354;9.756;2023-05-29T15:18:59;-13205.34;;;44.34;61.14